createdAt,value
2022-08-03T00:00:29.325Z,57.07
2022-08-03T00:02:56.703Z,57.14
2022-08-03T00:05:23.781Z,57.17
2022-08-03T00:07:50.817Z,57.29
2022-08-03T00:10:17.969Z,57.26
2022-08-03T00:12:45.098Z,56.91
2022-08-03T00:15:16.385Z,56.77
2022-08-03T00:17:53.014Z,57.36
2022-08-03T00:20:21.853Z,56.81
2022-08-03T00:22:49.910Z,56.81
2022-08-03T00:25:17.015Z,57.10
2022-08-03T00:27:44.107Z,56.93
2022-08-03T00:30:11.377Z,57.56
2022-08-03T00:32:38.846Z,57.33
2022-08-03T00:35:18.260Z,57.60
2022-08-03T00:37:59.403Z,57.96
2022-08-03T00:40:26.664Z,57.19
2022-08-03T00:43:00.451Z,57.53
2022-08-03T00:45:30.716Z,57.30
2022-08-03T00:47:58.664Z,57.17
2022-08-03T00:50:27.703Z,57.49
2022-08-03T00:52:58.494Z,57.66
2022-08-03T00:55:26.003Z,57.96
2022-08-03T00:57:53.835Z,57.69
2022-08-03T01:00:24.748Z,58.43
2022-08-03T01:02:52.030Z,58.88
2022-08-03T01:05:19.964Z,59.12
2022-08-03T01:07:56.265Z,59.91
2022-08-03T01:10:31.532Z,60.15
2022-08-03T01:14:03.611Z,60.74
2022-08-03T01:16:37.177Z,61.16
2022-08-03T01:19:35.238Z,61.35
2022-08-03T01:22:35.692Z,61.23
2022-08-03T01:25:23.522Z,61.67
2022-08-03T01:28:13.780Z,61.01
2022-08-03T01:30:44.029Z,61.48
2022-08-03T01:33:22.230Z,61.80
2022-08-03T01:35:53.385Z,62.11
2022-08-03T01:38:33.786Z,62.44
2022-08-03T01:41:12.298Z,62.55
2022-08-03T01:44:26.756Z,62.46
2022-08-03T01:46:31.244Z,62.58
2022-08-03T01:48:59.840Z,62.43
2022-08-03T01:51:58.687Z,62.71
2022-08-03T01:54:17.580Z,63.15
2022-08-03T01:56:46.701Z,63.09
2022-08-03T01:59:16.741Z,62.87
2022-08-03T02:02:28.565Z,62.92
2022-08-03T02:04:32.680Z,62.64
2022-08-03T02:07:03.352Z,62.98
2022-08-03T02:09:31.987Z,62.71
2022-08-03T02:12:00.947Z,62.99
2022-08-03T02:14:28.902Z,62.70
2022-08-03T02:16:57.627Z,62.76
2022-08-03T02:19:25.470Z,62.56
2022-08-03T02:21:56.409Z,61.98
2022-08-03T02:24:29.557Z,62.14
2022-08-03T02:26:57.780Z,62.41
2022-08-03T02:29:39.401Z,62.52
2022-08-03T02:32:17.454Z,62.55
2022-08-03T02:34:48.075Z,62.61
2022-08-03T02:37:18.494Z,62.86
2022-08-03T02:39:48.018Z,62.81
2022-08-03T02:42:19.930Z,62.62
2022-08-03T02:44:50.316Z,62.82
2022-08-03T02:47:21.153Z,62.67
2022-08-03T02:49:52.351Z,62.94
2022-08-03T02:52:23.517Z,63.07
2022-08-03T02:54:55.161Z,62.66
2022-08-03T02:57:25.974Z,62.39
2022-08-03T02:59:54.349Z,62.47
2022-08-03T03:02:22.159Z,62.61
2022-08-03T03:05:53.654Z,63.00
2022-08-03T03:07:51.311Z,63.16
2022-08-03T03:10:23.215Z,62.88
2022-08-03T03:12:56.313Z,62.98
2022-08-03T03:15:29.270Z,62.90
2022-08-03T03:17:57.265Z,62.73
2022-08-03T03:20:29.826Z,62.76
2022-08-03T03:23:01.258Z,62.25
2022-08-03T03:25:33.371Z,62.97
2022-08-03T03:28:01.587Z,62.94
2022-08-03T03:30:30.139Z,63.02
2022-08-03T03:32:59.041Z,63.08
2022-08-03T03:35:27.776Z,62.93
2022-08-03T03:37:55.230Z,63.00
2022-08-03T03:40:22.833Z,63.09
2022-08-03T03:42:50.559Z,63.07
2022-08-03T03:45:18.911Z,63.35
2022-08-03T03:47:46.224Z,62.79
2022-08-03T03:50:15.564Z,62.91
2022-08-03T03:52:42.700Z,62.44
2022-08-03T03:55:09.939Z,61.89
2022-08-03T03:57:38.323Z,62.32
2022-08-03T04:00:06.443Z,62.24
2022-08-03T04:02:33.597Z,62.61
2022-08-03T04:05:19.028Z,62.29
2022-08-03T04:08:20.597Z,61.79
2022-08-03T04:11:01.527Z,62.07
2022-08-03T04:14:03.873Z,61.17
2022-08-03T04:16:35.328Z,61.68
2022-08-03T04:19:08.354Z,61.50
2022-08-03T04:21:44.891Z,61.00
2022-08-03T04:24:13.740Z,61.63
2022-08-03T04:26:43.363Z,61.23
2022-08-03T04:29:12.173Z,60.35
2022-08-03T04:31:40.320Z,58.79
2022-08-03T04:34:07.962Z,57.79
2022-08-03T04:36:44.910Z,56.24
2022-08-03T04:39:16.830Z,55.43
2022-08-03T04:42:07.613Z,54.68
2022-08-03T04:44:37.960Z,53.70
2022-08-03T04:47:05.163Z,52.68
2022-08-03T04:49:32.803Z,52.20
2022-08-03T04:52:00.075Z,51.97
2022-08-03T04:54:27.154Z,51.18
2022-08-03T04:56:54.252Z,50.93
2022-08-03T04:59:21.305Z,51.08
2022-08-03T05:01:48.419Z,50.22
2022-08-03T05:04:15.437Z,49.41
2022-08-03T05:06:48.174Z,48.84
2022-08-03T05:09:46.113Z,48.73
2022-08-03T05:12:08.167Z,47.99
2022-08-03T05:14:37.781Z,47.92
2022-08-03T05:17:09.314Z,47.52
2022-08-03T05:19:36.397Z,46.92
2022-08-03T05:22:03.470Z,46.54
2022-08-03T05:24:30.602Z,46.18
2022-08-03T05:26:57.649Z,46.34
2022-08-03T05:29:24.661Z,45.74
2022-08-03T05:31:51.858Z,45.27
2022-08-03T05:34:18.884Z,44.80
2022-08-03T05:36:46.076Z,44.50
2022-08-03T05:39:13.163Z,44.14
2022-08-03T05:41:40.576Z,43.75
2022-08-03T05:44:07.571Z,43.44
2022-08-03T05:46:34.843Z,42.74
2022-08-03T05:49:02.020Z,42.13
2022-08-03T05:51:29.184Z,41.32
2022-08-03T05:53:56.252Z,40.93
2022-08-03T05:56:27.579Z,40.45
2022-08-03T05:58:54.948Z,40.05
2022-08-03T06:01:22.712Z,39.44
2022-08-03T06:03:51.210Z,39.78
2022-08-03T06:06:18.763Z,39.39
2022-08-03T06:08:46.836Z,38.69
2022-08-03T06:11:14.034Z,39.07
2022-08-03T06:13:41.769Z,38.25
2022-08-03T06:16:09.049Z,38.09
2022-08-03T06:18:36.863Z,37.99
2022-08-03T06:21:09.487Z,37.05
2022-08-03T06:23:53.180Z,37.14
2022-08-03T06:26:21.040Z,36.52
2022-08-03T06:28:53.081Z,36.02
2022-08-03T06:31:24.265Z,35.43
2022-08-03T06:34:35.121Z,35.00
2022-08-03T06:36:39.464Z,35.63
2022-08-03T06:39:06.834Z,35.01
2022-08-03T06:41:38.097Z,34.03
2022-08-03T06:44:12.521Z,34.01
2022-08-03T06:46:40.043Z,33.45
2022-08-03T06:49:08.209Z,33.56
2022-08-03T06:52:03.051Z,32.60
2022-08-03T06:54:25.201Z,32.78
2022-08-03T06:56:52.655Z,32.13
2022-08-03T07:00:06.528Z,31.13
2022-08-03T07:02:07.589Z,30.34
2022-08-03T07:04:34.834Z,29.76
2022-08-03T07:07:02.088Z,29.08
2022-08-03T07:09:29.232Z,29.01
2022-08-03T07:11:57.251Z,28.47
2022-08-03T07:14:24.360Z,28.14
2022-08-03T07:16:51.422Z,27.25
2022-08-03T07:19:18.421Z,26.96
2022-08-03T07:21:46.030Z,26.50
2022-08-03T07:24:13.023Z,25.88
2022-08-03T07:26:40.085Z,26.07
2022-08-03T07:29:11.901Z,26.39
2022-08-03T07:31:42.587Z,26.17
2022-08-03T07:34:09.660Z,26.52
2022-08-03T07:36:36.743Z,25.99
2022-08-03T07:39:16.527Z,25.29
2022-08-03T07:41:46.156Z,24.93
2022-08-03T07:44:13.763Z,25.56
2022-08-03T07:46:40.827Z,25.13
2022-08-03T07:49:07.989Z,25.59
2022-08-03T07:51:35.281Z,24.97
2022-08-03T07:54:02.892Z,23.97
2022-08-03T07:56:30.063Z,24.30
2022-08-03T07:58:57.532Z,24.61
2022-08-03T08:01:24.641Z,24.62
2022-08-03T08:03:52.621Z,24.62
2022-08-03T08:06:21.402Z,24.05
2022-08-03T08:08:48.698Z,23.27
2022-08-03T08:11:15.813Z,23.14
2022-08-03T08:13:42.878Z,22.52
2022-08-03T08:16:09.936Z,22.55
2022-08-03T08:18:37.062Z,22.90
2022-08-03T08:21:04.213Z,23.21
2022-08-03T08:23:41.751Z,23.65
2022-08-03T08:26:10.608Z,22.36
2022-08-03T08:28:37.742Z,22.76
2022-08-03T08:31:05.131Z,22.58
2022-08-03T08:33:54.345Z,22.79
2022-08-03T08:36:19.717Z,22.35
2022-08-03T08:38:46.887Z,21.97
2022-08-03T08:41:15.445Z,21.84
2022-08-03T08:43:42.861Z,23.25
2022-08-03T08:46:23.474Z,23.62
2022-08-03T08:48:53.622Z,23.52
2022-08-03T08:51:21.542Z,23.35
2022-08-03T08:53:52.325Z,22.92
2022-08-03T08:56:22.945Z,22.20
2022-08-03T08:58:54.638Z,22.25
2022-08-03T09:01:22.037Z,21.57
2022-08-03T09:03:49.519Z,21.69
2022-08-03T09:06:17.334Z,21.54
2022-08-03T09:08:44.362Z,21.61
2022-08-03T09:11:12.216Z,21.12
2022-08-03T09:13:39.463Z,21.00
2022-08-03T09:16:15.506Z,20.66
2022-08-03T09:18:48.346Z,21.08
2022-08-03T09:21:32.808Z,21.05
2022-08-03T09:24:04.824Z,21.25
2022-08-03T09:26:35.139Z,21.87
2022-08-03T09:29:11.283Z,22.35
2022-08-03T09:31:44.874Z,22.07
2022-08-03T09:34:16.401Z,21.20
2022-08-03T09:36:49.167Z,20.77
2022-08-03T09:39:40.748Z,20.20
2022-08-03T09:42:14.743Z,19.69
2022-08-03T09:44:44.708Z,20.81
2022-08-03T09:47:13.373Z,20.76
2022-08-03T09:49:42.023Z,20.80
2022-08-03T09:52:31.713Z,20.50
2022-08-03T09:56:05.191Z,19.86
2022-08-03T09:58:09.596Z,19.61
2022-08-03T10:00:52.926Z,20.07
2022-08-03T10:03:20.131Z,20.12
2022-08-03T10:05:47.210Z,20.27
2022-08-03T10:08:15.829Z,20.18
2022-08-03T10:10:44.913Z,19.96
2022-08-03T10:13:14.607Z,20.42
2022-08-03T10:16:22.824Z,20.11
2022-08-03T10:18:29.138Z,19.97
2022-08-03T10:21:03.386Z,20.07
2022-08-03T10:23:38.157Z,20.13
2022-08-03T10:26:08.296Z,20.20
2022-08-03T10:28:44.471Z,19.90
2022-08-03T10:31:14.243Z,19.44
2022-08-03T10:33:51.181Z,19.30
2022-08-03T10:36:24.205Z,18.77
2022-08-03T10:38:53.447Z,18.34
2022-08-03T10:41:22.303Z,17.76
2022-08-03T10:43:55.165Z,17.92
2022-08-03T10:46:22.231Z,19.03
2022-08-03T10:48:50.798Z,18.23
2022-08-03T10:51:19.908Z,17.70
2022-08-03T10:53:54.941Z,17.80
2022-08-03T10:56:54.245Z,17.25
2022-08-03T10:59:40.140Z,16.58
2022-08-03T11:02:09.994Z,16.29
2022-08-03T11:04:37.041Z,16.20
2022-08-03T11:07:25.962Z,16.15
2022-08-03T11:09:56.416Z,17.07
2022-08-03T11:12:31.318Z,17.66
2022-08-03T11:15:05.612Z,17.99
2022-08-03T11:17:46.773Z,18.10
2022-08-03T11:20:51.562Z,16.39
2022-08-03T11:24:04.989Z,15.64
2022-08-03T11:26:27.686Z,17.27
2022-08-03T11:29:27.622Z,18.75
2022-08-03T11:31:54.952Z,19.41
2022-08-03T11:34:22.360Z,19.69
2022-08-03T11:37:22.669Z,20.14
2022-08-03T11:39:53.125Z,20.80
2022-08-03T11:42:23.402Z,21.38
2022-08-03T11:44:51.606Z,21.79
2022-08-03T11:47:24.180Z,22.39
2022-08-03T11:49:54.107Z,22.56
2022-08-03T11:52:26.795Z,22.72
2022-08-03T11:54:56.860Z,22.48
2022-08-03T11:59:01.706Z,22.42
2022-08-03T12:00:23.492Z,21.72
2022-08-03T12:03:05.864Z,22.44
2022-08-03T12:05:35.749Z,21.89
2022-08-03T12:08:06.705Z,22.03
2022-08-03T12:10:34.840Z,22.11
2022-08-03T12:13:06.056Z,22.58
2022-08-03T12:15:54.125Z,22.69
2022-08-03T12:18:23.426Z,22.82
2022-08-03T12:20:52.342Z,23.35
2022-08-03T12:23:20.315Z,23.25
2022-08-03T12:25:49.512Z,23.53
2022-08-03T12:28:36.451Z,23.56
2022-08-03T12:31:09.697Z,23.54
2022-08-03T12:34:05.143Z,22.50
2022-08-03T12:36:35.320Z,22.74
2022-08-03T12:39:07.675Z,23.53
2022-08-03T12:41:40.914Z,24.07
2022-08-03T12:44:09.738Z,24.18
2022-08-03T12:46:42.702Z,23.99
2022-08-03T12:49:19.149Z,24.13
2022-08-03T12:51:46.196Z,23.78
2022-08-03T12:54:26.341Z,24.24
2022-08-03T12:57:04.086Z,24.01
2022-08-03T12:59:52.814Z,24.24
2022-08-03T13:02:26.354Z,24.82
2022-08-03T13:04:54.866Z,25.06
2022-08-03T13:07:23.000Z,25.32
2022-08-03T13:09:55.482Z,25.43
2022-08-03T13:12:24.673Z,24.97
2022-08-03T13:14:57.206Z,25.64
2022-08-03T13:17:24.902Z,25.36
2022-08-03T13:19:53.019Z,25.34
2022-08-03T13:22:22.888Z,24.66
2022-08-03T13:24:52.408Z,23.64
2022-08-03T13:28:01.812Z,23.02
2022-08-03T13:30:08.790Z,22.24
2022-08-03T13:32:36.203Z,22.47
2022-08-03T13:35:04.224Z,21.50
2022-08-03T13:37:32.536Z,22.06
2022-08-03T13:40:02.983Z,22.85
2022-08-03T13:42:33.198Z,22.95
2022-08-03T13:45:01.521Z,23.48
2022-08-03T13:47:31.257Z,23.07
2022-08-03T13:50:01.258Z,23.67
2022-08-03T13:52:36.421Z,24.20
2022-08-03T13:55:06.204Z,23.61
2022-08-03T13:58:04.252Z,23.68
2022-08-03T14:00:27.921Z,24.11
2022-08-03T14:03:10.813Z,24.54
2022-08-03T14:05:41.767Z,25.54
2022-08-03T14:08:09.419Z,25.85
2022-08-03T14:10:38.582Z,25.89
2022-08-03T14:13:06.360Z,26.33
2022-08-03T14:15:37.716Z,26.93
2022-08-03T14:18:12.713Z,27.19
2022-08-03T14:20:50.236Z,27.63
2022-08-03T14:23:21.795Z,28.61
2022-08-03T14:25:51.774Z,28.04
2022-08-03T14:28:23.330Z,27.11
2022-08-03T14:30:56.106Z,27.22
2022-08-03T14:33:23.530Z,27.68
2022-08-03T14:35:51.265Z,31.38
2022-08-03T14:38:18.730Z,29.48
2022-08-03T14:40:46.499Z,30.29
2022-08-03T14:43:14.085Z,30.08
2022-08-03T14:45:41.604Z,30.73
2022-08-03T14:50:31.075Z,30.22
2022-08-03T14:50:56.879Z,30.50
2022-08-03T14:53:24.449Z,31.06
2022-08-03T14:55:53.471Z,29.58
2022-08-03T14:58:25.470Z,29.78
2022-08-03T15:00:54.729Z,29.93
2022-08-03T15:03:26.214Z,29.44
2022-08-03T15:05:55.858Z,29.58
2022-08-03T15:08:23.774Z,30.36
2022-08-03T15:10:51.571Z,30.22
2022-08-03T15:13:22.983Z,29.89
2022-08-03T15:15:50.145Z,30.36
2022-08-03T15:18:17.621Z,31.12
2022-08-03T15:20:46.671Z,31.32
2022-08-03T15:23:16.153Z,31.25
2022-08-03T15:26:04.057Z,33.11
2022-08-03T15:28:32.656Z,32.36
2022-08-03T15:31:01.047Z,32.47
2022-08-03T15:33:28.819Z,31.75
2022-08-03T15:35:57.115Z,32.88
2022-08-03T15:38:26.213Z,33.09
2022-08-03T15:40:54.849Z,32.04
2022-08-03T15:43:25.378Z,34.04
2022-08-03T15:46:12.751Z,35.37
2022-08-03T15:48:40.572Z,36.58
2022-08-03T15:51:08.619Z,38.61
2022-08-03T15:53:36.220Z,39.18
2022-08-03T15:56:10.041Z,36.95
2022-08-03T15:59:03.155Z,38.53
2022-08-03T16:01:27.080Z,41.23
2022-08-03T16:03:54.113Z,41.66
2022-08-03T16:06:34.825Z,41.76
2022-08-03T16:09:05.815Z,42.21
2022-08-03T16:11:51.655Z,40.92
2022-08-03T16:14:32.481Z,44.92
2022-08-03T16:17:03.997Z,45.83
2022-08-03T16:19:31.153Z,45.61
2022-08-03T16:21:58.524Z,44.85
2022-08-03T16:24:27.934Z,48.17
2022-08-03T16:26:56.182Z,47.20
2022-08-03T16:29:23.792Z,43.96
2022-08-03T16:31:52.278Z,48.64
2022-08-03T16:34:20.558Z,40.29
2022-08-03T16:36:47.812Z,40.87
2022-08-03T16:39:15.025Z,42.55
2022-08-03T16:42:00.719Z,39.55
2022-08-03T16:44:30.801Z,43.81
2022-08-03T16:46:58.967Z,44.44
2022-08-03T16:49:54.245Z,43.51
2022-08-03T16:52:13.349Z,38.98
2022-08-03T16:54:40.890Z,39.67
2022-08-03T16:57:56.559Z,39.26
2022-08-03T16:59:55.296Z,39.08
2022-08-03T17:02:26.267Z,39.85
2022-08-03T17:04:56.038Z,40.15
2022-08-03T17:07:23.825Z,39.44
2022-08-03T17:09:57.441Z,39.91
2022-08-03T17:12:27.068Z,39.71
2022-08-03T17:14:54.843Z,38.79
2022-08-03T17:17:37.671Z,39.41
2022-08-03T17:20:20.298Z,39.73
2022-08-03T17:23:03.311Z,40.04
2022-08-03T17:26:01.736Z,40.33
2022-08-03T17:28:48.253Z,41.39
2022-08-03T17:31:23.168Z,41.42
2022-08-03T17:34:01.359Z,41.98
2022-08-03T17:36:54.091Z,41.97
2022-08-03T17:39:30.895Z,41.03
2022-08-03T17:42:30.615Z,41.92
2022-08-03T17:44:56.397Z,41.81
2022-08-03T17:47:23.703Z,42.57
2022-08-03T17:49:57.124Z,42.68
2022-08-03T17:52:33.457Z,42.78
2022-08-03T17:55:50.353Z,42.85
2022-08-03T18:01:04.531Z,42.92
2022-08-03T18:03:58.262Z,42.61
2022-08-03T18:06:31.919Z,42.34
2022-08-03T18:09:04.841Z,41.95
2022-08-03T18:11:54.728Z,42.28
2022-08-03T18:14:38.408Z,44.13
2022-08-03T18:17:10.195Z,45.89
2022-08-03T18:20:03.559Z,44.53
2022-08-03T18:22:27.666Z,44.28
2022-08-03T18:25:00.448Z,43.99
2022-08-03T18:27:42.810Z,45.12
2022-08-03T18:30:15.433Z,44.38
2022-08-03T18:32:43.858Z,43.68
2022-08-03T18:35:53.726Z,43.84
2022-08-03T18:38:18.841Z,44.05
2022-08-03T18:43:46.530Z,44.85
2022-08-03T18:46:36.025Z,44.09
2022-08-03T18:49:14.858Z,44.33
2022-08-03T18:51:47.129Z,45.87
2022-08-03T18:57:38.018Z,45.81
2022-08-03T19:00:15.754Z,44.83
2022-08-03T19:02:56.068Z,45.49
2022-08-03T19:05:53.784Z,44.73
2022-08-03T19:08:20.049Z,44.82
2022-08-03T19:11:00.764Z,44.67
2022-08-03T19:13:44.452Z,45.00
2022-08-03T19:16:38.741Z,44.82
2022-08-03T19:19:10.426Z,45.19
2022-08-03T19:21:41.798Z,45.31
2022-08-03T19:24:10.365Z,45.73
2022-08-03T19:26:39.731Z,45.51
2022-08-03T19:29:11.368Z,45.03
2022-08-03T19:31:59.527Z,44.95
2022-08-03T19:34:30.094Z,45.11
2022-08-03T19:36:58.424Z,44.99
2022-08-03T19:39:29.050Z,44.61
2022-08-03T19:42:11.007Z,45.35
2022-08-03T19:44:53.486Z,46.34
2022-08-03T19:47:42.664Z,47.48
2022-08-03T19:50:13.888Z,47.18
2022-08-03T19:52:43.984Z,46.83
2022-08-03T19:55:12.517Z,46.54
2022-08-03T19:57:45.639Z,47.01
2022-08-03T20:00:14.103Z,47.40
2022-08-03T20:02:43.085Z,48.03
2022-08-03T20:05:14.891Z,47.96
2022-08-03T20:07:48.281Z,48.16
2022-08-03T20:10:18.273Z,48.20
2022-08-03T20:12:52.563Z,48.55
2022-08-03T20:15:31.047Z,48.56
2022-08-03T20:17:59.754Z,48.14
2022-08-03T20:20:37.799Z,48.56
2022-08-03T20:23:25.857Z,49.50
2022-08-03T20:26:14.925Z,49.14
2022-08-03T20:32:10.758Z,48.26
2022-08-03T20:34:39.664Z,48.12
2022-08-03T20:37:07.291Z,48.58
2022-08-03T20:39:42.404Z,48.11
2022-08-03T20:42:22.644Z,48.08
2022-08-03T20:45:05.549Z,47.38
2022-08-03T20:47:50.685Z,47.58
2022-08-03T20:50:20.097Z,47.84
2022-08-03T20:55:47.954Z,46.77
2022-08-03T20:58:36.122Z,46.57
2022-08-03T21:01:14.194Z,47.93
2022-08-03T21:03:55.433Z,47.07
2022-08-03T21:06:27.672Z,47.80
2022-08-03T21:09:04.004Z,47.21
2022-08-03T21:11:47.579Z,47.23
2022-08-03T21:12:56.080Z,42.65
2022-08-03T21:12:58.868Z,44.18
2022-08-03T21:14:25.433Z,47.60
2022-08-03T21:16:53.359Z,47.48
2022-08-03T21:19:22.993Z,47.41
2022-08-03T21:21:50.714Z,46.81
2022-08-03T21:24:19.806Z,48.39
2022-08-03T21:26:48.719Z,48.75
2022-08-03T21:29:16.953Z,47.68
2022-08-03T21:31:44.184Z,47.76
2022-08-03T21:34:12.790Z,48.01
2022-08-03T21:36:40.188Z,48.26
2022-08-03T21:39:09.940Z,48.22
2022-08-03T21:41:40.389Z,49.15
2022-08-03T21:44:07.999Z,49.89
2022-08-03T21:46:37.476Z,49.71
2022-08-03T21:50:04.247Z,49.81
2022-08-03T21:51:59.196Z,49.22
2022-08-03T21:54:33.943Z,49.67
2022-08-03T21:57:05.133Z,50.07
2022-08-03T21:59:37.251Z,51.69
2022-08-03T22:02:05.018Z,50.19
2022-08-03T22:04:42.746Z,49.73
2022-08-03T22:07:24.689Z,49.17
2022-08-03T22:09:52.398Z,49.83
2022-08-03T22:12:24.497Z,49.67
2022-08-03T22:15:00.390Z,48.65
2022-08-03T22:17:56.030Z,50.69
2022-08-03T22:20:24.826Z,49.43
2022-08-03T22:22:59.491Z,49.81
2022-08-03T22:25:30.959Z,50.71
2022-08-03T22:28:17.135Z,50.45
2022-08-03T22:30:44.220Z,50.05
2022-08-03T22:33:14.651Z,48.56
2022-08-03T22:35:48.730Z,47.71
2022-08-03T22:38:17.413Z,47.89
2022-08-03T22:40:47.514Z,47.33
2022-08-03T22:43:14.450Z,47.95
2022-08-03T22:46:11.253Z,47.96
2022-08-03T22:48:40.926Z,46.77
2022-08-03T22:51:11.978Z,46.82
2022-08-03T22:53:39.715Z,48.37
2022-08-03T22:56:07.195Z,49.97
2022-08-03T22:58:34.363Z,50.14
2022-08-03T23:01:08.629Z,51.13
2022-08-03T23:04:01.063Z,51.01
2022-08-03T23:06:35.764Z,51.40
2022-08-03T23:09:09.815Z,52.73
2022-08-03T23:11:45.728Z,52.91
2022-08-03T23:14:17.704Z,52.83
2022-08-03T23:16:46.518Z,52.95
2022-08-03T23:19:25.365Z,54.17
2022-08-03T23:22:02.251Z,53.43
2022-08-03T23:24:36.046Z,54.10
2022-08-03T23:27:05.975Z,54.64
2022-08-03T23:29:42.919Z,54.62
2022-08-03T23:32:13.161Z,54.39
2022-08-03T23:35:00.203Z,55.40
2022-08-03T23:37:27.809Z,55.63
2022-08-03T23:39:57.456Z,55.91
2022-08-03T23:42:25.373Z,56.45
2022-08-03T23:44:59.476Z,56.51
2022-08-03T23:47:46.922Z,56.23
2022-08-03T23:50:15.589Z,56.77
2022-08-03T23:52:52.847Z,55.66
2022-08-03T23:55:29.158Z,56.47
2022-08-03T23:58:04.186Z,55.35
